createdAt,value
2023-01-21T00:01:25.012Z,9.07
2023-01-21T00:04:07.603Z,7.88
2023-01-21T00:06:51.597Z,9.05
2023-01-21T00:09:34.411Z,8.60
2023-01-21T00:12:17.025Z,9.02
2023-01-21T00:14:59.614Z,8.00
2023-01-21T00:17:43.859Z,8.55
2023-01-21T00:20:26.428Z,8.48
2023-01-21T00:23:10.826Z,9.65
2023-01-21T00:25:57.738Z,8.88
2023-01-21T00:28:41.649Z,9.32
2023-01-21T00:31:24.325Z,8.75
2023-01-21T00:34:08.125Z,8.52
2023-01-21T00:36:50.734Z,8.82
2023-01-21T00:39:34.703Z,8.77
2023-01-21T00:42:17.288Z,9.25
2023-01-21T00:45:00.080Z,8.93
2023-01-21T00:47:42.963Z,8.45
2023-01-21T00:50:25.547Z,9.07
2023-01-21T00:53:08.112Z,8.82
2023-01-21T00:55:52.097Z,8.82
2023-01-21T00:58:34.899Z,8.90
2023-01-21T01:01:18.430Z,9.02
2023-01-21T01:04:00.998Z,9.07
2023-01-21T01:06:43.585Z,9.05
2023-01-21T01:09:26.191Z,8.57
2023-01-21T01:12:10.220Z,8.88
2023-01-21T01:14:52.802Z,9.05
2023-01-21T01:17:35.376Z,8.73
2023-01-21T01:20:18.332Z,8.30
2023-01-21T01:23:01.056Z,8.32
2023-01-21T01:25:43.627Z,8.75
2023-01-21T01:28:27.855Z,8.43
2023-01-21T01:31:12.219Z,8.55
2023-01-21T01:33:54.919Z,8.80
2023-01-21T01:36:37.498Z,8.48
2023-01-21T01:39:20.068Z,9.07
2023-01-21T01:42:03.435Z,8.32
2023-01-21T01:44:57.884Z,8.55
2023-01-21T01:47:42.466Z,8.80
2023-01-21T01:50:27.445Z,8.50
2023-01-21T01:53:10.528Z,8.50
2023-01-21T01:55:53.271Z,9.38
2023-01-21T01:58:35.926Z,8.43
2023-01-21T02:01:20.190Z,7.57
2023-01-21T02:04:04.362Z,7.97
2023-01-21T02:06:47.186Z,7.82
2023-01-21T02:09:29.885Z,7.80
2023-01-21T02:12:12.634Z,6.97
2023-01-21T02:14:55.229Z,7.72
2023-01-21T02:17:43.930Z,7.50
2023-01-21T02:20:44.440Z,7.93
2023-01-21T02:23:32.745Z,7.30
2023-01-21T02:26:33.794Z,7.75
2023-01-21T02:29:26.112Z,7.32
2023-01-21T02:32:23.709Z,8.30
2023-01-21T02:35:10.246Z,7.47
2023-01-21T02:37:55.523Z,7.53
2023-01-21T02:40:39.431Z,8.18
2023-01-21T02:43:29.439Z,8.75
2023-01-21T02:46:14.629Z,8.07
2023-01-21T02:48:59.443Z,7.70
2023-01-21T02:51:47.810Z,8.30
2023-01-21T02:54:50.244Z,7.85
2023-01-21T02:57:38.416Z,8.57
2023-01-21T03:00:21.994Z,8.05
2023-01-21T03:03:16.019Z,7.60
2023-01-21T03:06:16.536Z,8.68
2023-01-21T03:09:03.619Z,8.23
2023-01-21T03:11:49.263Z,8.45
2023-01-21T03:14:53.276Z,8.90
2023-01-21T03:17:41.548Z,8.35
2023-01-21T03:20:25.774Z,8.73
2023-01-21T03:23:11.284Z,8.85
2023-01-21T03:25:56.565Z,9.25
2023-01-21T03:28:42.207Z,9.38
2023-01-21T03:31:26.632Z,8.98
2023-01-21T03:34:10.719Z,8.80
2023-01-21T03:36:54.851Z,8.70
2023-01-21T03:39:41.093Z,8.95
2023-01-21T03:42:25.131Z,10.00
2023-01-21T03:45:08.480Z,9.85
2023-01-21T03:47:55.521Z,9.85
2023-01-21T03:50:39.607Z,10.40
2023-01-21T03:53:22.400Z,10.05
2023-01-21T03:56:05.166Z,10.00
2023-01-21T03:58:49.100Z,9.65
2023-01-21T04:01:31.694Z,9.50
2023-01-21T04:04:14.264Z,10.05
2023-01-21T04:06:56.852Z,9.98
2023-01-21T04:09:39.526Z,9.75
2023-01-21T04:12:22.084Z,10.30
2023-01-21T04:15:06.649Z,10.65
2023-01-21T04:17:49.237Z,10.30
2023-01-21T04:20:31.846Z,10.40
2023-01-21T04:23:14.447Z,10.73
2023-01-21T04:25:56.985Z,11.02
2023-01-21T04:28:39.540Z,10.48
2023-01-21T04:31:23.511Z,11.27
2023-01-21T04:34:06.099Z,10.07
2023-01-21T04:36:48.672Z,10.88
2023-01-21T04:39:31.223Z,10.85
2023-01-21T04:42:13.769Z,11.63
2023-01-21T04:44:56.380Z,11.10
2023-01-21T04:47:43.020Z,10.30
2023-01-21T04:50:25.775Z,10.15
2023-01-21T04:53:08.333Z,10.95
2023-01-21T04:55:51.993Z,10.60
2023-01-21T04:58:34.556Z,10.57
2023-01-21T05:01:17.194Z,11.10
2023-01-21T05:04:01.117Z,11.18
2023-01-21T05:06:43.711Z,11.65
2023-01-21T05:09:26.255Z,11.48
2023-01-21T05:12:09.346Z,11.80
2023-01-21T05:14:53.846Z,11.45
2023-01-21T05:17:36.423Z,11.65
2023-01-21T05:20:20.513Z,11.70
2023-01-21T05:23:03.059Z,12.05
2023-01-21T05:25:45.646Z,10.93
2023-01-21T05:28:28.211Z,10.65
2023-01-21T05:31:10.889Z,10.38
2023-01-21T05:33:53.493Z,9.82
2023-01-21T05:36:37.398Z,10.20
2023-01-21T05:39:19.981Z,10.07
2023-01-21T05:42:02.601Z,10.48
2023-01-21T05:44:45.168Z,10.80
2023-01-21T05:47:27.765Z,11.27
2023-01-21T05:50:10.973Z,11.52
2023-01-21T05:52:54.897Z,10.85
2023-01-21T05:55:37.763Z,11.77
2023-01-21T05:58:20.463Z,12.10
2023-01-21T06:01:03.059Z,12.45
2023-01-21T06:03:47.133Z,11.48
2023-01-21T06:06:29.740Z,10.82
2023-01-21T06:09:13.671Z,11.18
2023-01-21T06:11:56.228Z,10.95
2023-01-21T06:14:38.794Z,11.23
2023-01-21T06:17:21.414Z,11.68
2023-01-21T06:20:04.155Z,11.13
2023-01-21T06:22:46.812Z,11.93
2023-01-21T06:25:30.993Z,10.30
2023-01-21T06:28:13.625Z,11.23
2023-01-21T06:30:56.287Z,11.20
2023-01-21T06:33:38.942Z,11.02
2023-01-21T06:36:21.516Z,11.25
2023-01-21T06:39:04.133Z,11.65
2023-01-21T06:41:48.049Z,12.00
2023-01-21T06:44:30.653Z,10.75
2023-01-21T06:47:13.301Z,12.10
2023-01-21T06:49:55.942Z,11.30
2023-01-21T06:52:38.708Z,11.80
2023-01-21T06:55:21.454Z,11.18
2023-01-21T06:58:05.374Z,11.30
2023-01-21T07:00:47.977Z,11.40
2023-01-21T07:03:30.591Z,10.40
2023-01-21T07:06:13.165Z,10.63
2023-01-21T07:08:55.738Z,11.02
2023-01-21T07:11:38.302Z,10.95
2023-01-21T07:14:22.241Z,11.23
2023-01-21T07:17:04.812Z,10.23
2023-01-21T07:19:47.399Z,10.65
2023-01-21T07:22:29.948Z,10.00
2023-01-21T07:25:12.569Z,10.45
2023-01-21T07:27:55.151Z,9.82
2023-01-21T07:30:39.198Z,10.68
2023-01-21T07:33:21.789Z,10.45
2023-01-21T07:36:04.602Z,11.02
2023-01-21T07:38:47.162Z,11.48
2023-01-21T07:41:29.756Z,10.30
2023-01-21T07:44:12.487Z,11.73
2023-01-21T07:46:56.432Z,10.75
2023-01-21T07:49:39.266Z,10.68
2023-01-21T07:52:21.954Z,11.75
2023-01-21T07:55:05.004Z,11.65
2023-01-21T07:57:47.619Z,10.95
2023-01-21T08:00:30.183Z,11.57
2023-01-21T08:03:14.096Z,10.93
2023-01-21T08:05:56.716Z,11.02
2023-01-21T08:08:39.299Z,10.60
2023-01-21T08:11:21.922Z,11.18
2023-01-21T08:14:04.513Z,11.60
2023-01-21T08:16:47.145Z,10.10
2023-01-21T08:19:31.076Z,10.38
2023-01-21T08:22:13.694Z,10.23
2023-01-21T08:24:56.267Z,8.95
2023-01-21T08:27:38.984Z,10.75
2023-01-21T08:30:21.716Z,9.27
2023-01-21T08:33:06.487Z,9.40
2023-01-21T08:35:50.518Z,10.30
2023-01-21T08:38:33.164Z,9.68
2023-01-21T08:41:16.590Z,9.60
2023-01-21T08:43:59.196Z,8.85
2023-01-21T08:46:41.811Z,9.68
2023-01-21T08:49:24.378Z,9.25
2023-01-21T08:52:08.456Z,8.30
2023-01-21T08:54:51.050Z,7.28
2023-01-21T08:57:33.572Z,8.13
2023-01-21T09:00:16.518Z,8.80
2023-01-21T09:02:59.703Z,8.25
2023-01-21T09:05:42.305Z,8.52
2023-01-21T09:08:26.278Z,8.38
2023-01-21T09:11:10.096Z,8.60
2023-01-21T09:13:52.893Z,8.45
2023-01-21T09:16:36.389Z,8.63
2023-01-21T09:19:19.646Z,8.65
2023-01-21T09:22:02.265Z,8.70
2023-01-21T09:24:46.227Z,9.55
2023-01-21T09:27:28.781Z,9.10
2023-01-21T09:30:11.846Z,9.30
2023-01-21T09:32:54.457Z,8.90
2023-01-21T09:35:37.065Z,8.43
2023-01-21T09:38:19.655Z,8.00
2023-01-21T09:41:05.994Z,8.30
2023-01-21T09:43:50.434Z,9.20
2023-01-21T09:46:36.909Z,8.27
2023-01-21T09:49:21.707Z,8.65
2023-01-21T09:52:07.558Z,7.47
2023-01-21T09:54:50.213Z,8.48
2023-01-21T09:57:42.237Z,8.32
2023-01-21T10:00:32.176Z,8.75
2023-01-21T10:03:19.434Z,8.90
2023-01-21T10:06:09.788Z,8.02
2023-01-21T10:08:58.636Z,9.00
2023-01-21T10:11:50.059Z,8.80
2023-01-21T10:14:42.352Z,8.85
2023-01-21T10:17:30.597Z,9.02
2023-01-21T10:20:16.003Z,9.90
2023-01-21T10:23:01.069Z,9.27
2023-01-21T10:25:45.794Z,8.82
2023-01-21T10:28:30.486Z,8.48
2023-01-21T10:31:17.415Z,8.63
2023-01-21T10:34:00.083Z,8.48
2023-01-21T10:36:47.883Z,9.07
2023-01-21T10:39:34.742Z,8.80
2023-01-21T10:42:25.892Z,8.55
2023-01-21T10:45:13.772Z,9.20
2023-01-21T10:48:04.558Z,8.25
2023-01-21T10:50:50.326Z,8.02
2023-01-21T10:53:36.636Z,8.65
2023-01-21T10:56:23.387Z,8.50
2023-01-21T10:59:08.227Z,8.32
2023-01-21T11:01:52.196Z,8.50
2023-01-21T11:04:36.878Z,8.35
2023-01-21T11:07:21.720Z,8.15
2023-01-21T11:10:05.982Z,8.25
2023-01-21T11:12:49.033Z,7.95
2023-01-21T11:15:34.426Z,7.75
2023-01-21T11:18:27.333Z,7.40
2023-01-21T11:21:17.440Z,7.78
2023-01-21T11:24:00.960Z,7.70
2023-01-21T11:26:49.940Z,7.47
2023-01-21T11:29:40.029Z,7.93
2023-01-21T11:32:23.746Z,8.23
2023-01-21T11:35:10.591Z,8.32
2023-01-21T11:37:54.760Z,8.40
2023-01-21T11:40:37.835Z,8.85
2023-01-21T11:43:33.492Z,8.52
2023-01-21T11:46:24.016Z,8.75
2023-01-21T11:49:26.119Z,8.57
2023-01-21T11:52:19.010Z,8.27
2023-01-21T11:55:03.640Z,8.32
2023-01-21T11:57:50.143Z,8.50
2023-01-21T12:00:36.045Z,8.05
2023-01-21T12:03:20.033Z,8.50
2023-01-21T12:06:02.881Z,8.80
2023-01-21T12:08:49.567Z,8.45
2023-01-21T12:11:33.629Z,8.82
2023-01-21T12:14:22.719Z,8.10
2023-01-21T12:17:09.114Z,8.85
2023-01-21T12:19:57.793Z,7.95
2023-01-21T12:22:46.392Z,8.57
2023-01-21T12:25:38.246Z,8.90
2023-01-21T12:28:31.473Z,8.38
2023-01-21T12:31:23.644Z,8.68
2023-01-21T12:34:14.020Z,7.93
2023-01-21T12:36:59.296Z,8.23
2023-01-21T12:39:42.069Z,7.95
2023-01-21T12:42:27.287Z,7.50
2023-01-21T12:45:14.896Z,7.53
2023-01-21T12:48:01.320Z,7.30
2023-01-21T12:50:45.302Z,7.00
2023-01-21T12:53:32.908Z,6.15
2023-01-21T12:56:21.841Z,6.43
2023-01-21T12:59:06.526Z,5.90
2023-01-21T13:01:54.653Z,6.85
2023-01-21T13:04:41.255Z,6.05
2023-01-21T13:07:31.338Z,6.45
2023-01-21T13:10:16.659Z,5.28
2023-01-21T13:13:03.452Z,5.95
2023-01-21T13:15:47.507Z,5.60
2023-01-21T13:18:33.665Z,5.90
2023-01-21T13:21:21.404Z,5.30
2023-01-21T13:24:08.377Z,5.65
2023-01-21T13:26:54.114Z,5.78
2023-01-21T13:29:39.667Z,5.13
2023-01-21T13:32:30.050Z,6.57
2023-01-21T13:35:19.712Z,6.03
2023-01-21T13:38:06.018Z,6.30
2023-01-21T13:40:50.593Z,6.20
2023-01-21T13:43:40.405Z,6.13
2023-01-21T13:46:30.284Z,5.70
2023-01-21T13:49:20.204Z,5.50
2023-01-21T13:52:06.630Z,5.57
2023-01-21T13:54:58.985Z,4.95
2023-01-21T13:57:48.673Z,5.20
2023-01-21T14:00:32.980Z,4.57
2023-01-21T14:03:22.681Z,4.25
2023-01-21T14:06:08.634Z,3.53
2023-01-21T14:08:55.443Z,3.67
2023-01-21T14:11:40.440Z,3.47
2023-01-21T14:14:36.158Z,3.58
2023-01-21T14:17:33.388Z,3.38
2023-01-21T14:20:34.465Z,3.53
2023-01-21T14:23:26.085Z,3.75
2023-01-21T14:26:31.810Z,4.00
2023-01-21T14:29:17.803Z,4.07
2023-01-21T14:32:04.354Z,3.58
2023-01-21T14:34:54.019Z,3.83
2023-01-21T14:37:38.850Z,3.92
2023-01-21T14:40:26.577Z,4.25
2023-01-21T14:43:19.114Z,3.55
2023-01-21T14:46:01.986Z,3.53
2023-01-21T14:48:56.674Z,3.20
2023-01-21T14:51:43.778Z,2.95
2023-01-21T14:54:27.601Z,3.10
2023-01-21T14:57:19.594Z,2.83
2023-01-21T15:00:13.147Z,2.38
2023-01-21T15:03:14.647Z,2.72
2023-01-21T15:06:00.319Z,2.88
2023-01-21T15:08:46.204Z,2.90
2023-01-21T15:11:31.365Z,2.92
2023-01-21T15:14:15.540Z,2.92
2023-01-21T15:16:59.598Z,2.80
2023-01-21T15:19:42.188Z,2.97
2023-01-21T15:22:40.729Z,3.05
2023-01-21T15:25:31.422Z,2.47
2023-01-21T15:28:43.437Z,2.83
2023-01-21T15:31:43.371Z,2.90
2023-01-21T15:34:30.462Z,2.70
2023-01-21T15:37:17.536Z,2.92
2023-01-21T15:40:01.769Z,2.67
2023-01-21T15:42:46.933Z,2.85
2023-01-21T15:45:32.262Z,2.45
2023-01-21T15:48:30.167Z,2.47
2023-01-21T15:51:27.426Z,2.72
2023-01-21T15:54:21.142Z,2.65
2023-01-21T15:57:11.822Z,2.53
2023-01-21T16:00:03.657Z,2.20
2023-01-21T16:02:51.685Z,2.58
2023-01-21T16:05:39.807Z,2.60
2023-01-21T16:08:27.988Z,2.30
2023-01-21T16:11:19.089Z,2.75
2023-01-21T16:14:13.106Z,2.90
2023-01-21T16:17:03.132Z,3.38
2023-01-21T16:19:47.622Z,3.10
2023-01-21T16:22:32.214Z,2.85
2023-01-21T16:25:18.448Z,3.05
2023-01-21T16:28:01.140Z,2.75
2023-01-21T16:30:53.006Z,2.72
2023-01-21T16:33:35.648Z,2.78
2023-01-21T16:36:18.679Z,2.80
2023-01-21T16:39:06.926Z,3.40
2023-01-21T16:42:00.675Z,3.10
2023-01-21T16:44:43.231Z,2.95
2023-01-21T16:47:26.934Z,3.45
2023-01-21T16:50:18.284Z,3.22
2023-01-21T16:53:06.822Z,2.75
2023-01-21T16:55:51.031Z,2.20
2023-01-21T16:58:36.211Z,3.05
2023-01-21T17:01:19.856Z,3.00
2023-01-21T17:04:03.285Z,2.65
2023-01-21T17:06:46.575Z,2.47
2023-01-21T17:09:30.934Z,2.70
2023-01-21T17:12:20.635Z,2.70
2023-01-21T17:15:08.154Z,2.65
2023-01-21T17:17:51.690Z,2.83
2023-01-21T17:20:36.196Z,3.05
2023-01-21T17:23:20.441Z,2.65
2023-01-21T17:26:04.780Z,2.92
2023-01-21T17:28:49.157Z,3.15
2023-01-21T17:31:36.664Z,3.10
2023-01-21T17:34:20.872Z,2.90
2023-01-21T17:37:05.397Z,3.22
2023-01-21T17:40:00.674Z,3.20
2023-01-21T17:42:43.330Z,3.17
2023-01-21T17:45:32.785Z,3.00
2023-01-21T17:48:22.794Z,2.95
2023-01-21T17:51:06.357Z,3.08
2023-01-21T17:53:55.492Z,3.00
2023-01-21T17:56:39.400Z,3.25
2023-01-21T17:59:26.902Z,3.47
2023-01-21T18:02:11.973Z,3.40
2023-01-21T18:04:55.963Z,4.10
2023-01-21T18:07:38.725Z,3.67
2023-01-21T18:10:24.016Z,3.70
2023-01-21T18:13:06.746Z,3.78
2023-01-21T18:15:51.729Z,4.10
2023-01-21T18:18:35.799Z,3.40
2023-01-21T18:21:20.977Z,3.20
2023-01-21T18:24:03.612Z,3.30
2023-01-21T18:26:46.291Z,3.40
2023-01-21T18:29:30.253Z,3.65
2023-01-21T18:32:13.095Z,3.50
2023-01-21T18:34:55.973Z,3.70
2023-01-21T18:37:39.976Z,3.88
2023-01-21T18:40:23.651Z,3.88
2023-01-21T18:43:06.243Z,3.55
2023-01-21T18:45:48.881Z,4.13
2023-01-21T18:48:32.087Z,3.88
2023-01-21T18:51:14.833Z,3.20
2023-01-21T18:53:58.837Z,3.70
2023-01-21T18:56:42.391Z,4.03
2023-01-21T18:59:24.999Z,3.88
2023-01-21T19:02:11.969Z,4.10
2023-01-21T19:04:54.630Z,4.10
2023-01-21T19:07:37.263Z,4.03
2023-01-21T19:10:21.542Z,3.38
2023-01-21T19:13:04.399Z,4.00
2023-01-21T19:15:47.876Z,3.80
2023-01-21T19:18:30.547Z,4.10
2023-01-21T19:21:13.647Z,3.97
2023-01-21T19:23:56.426Z,4.20
2023-01-21T19:26:40.624Z,3.78
2023-01-21T19:29:26.741Z,3.92
2023-01-21T19:32:14.458Z,3.55
2023-01-21T19:34:57.818Z,3.95
2023-01-21T19:37:40.857Z,3.67
2023-01-21T19:40:24.208Z,3.35
2023-01-21T19:43:10.650Z,4.68
2023-01-21T19:45:53.687Z,4.13
2023-01-21T19:48:36.320Z,4.03
2023-01-21T19:51:18.952Z,3.55
2023-01-21T19:54:01.596Z,4.10
2023-01-21T19:56:44.353Z,4.22
2023-01-21T19:59:28.335Z,3.70
2023-01-21T20:02:11.751Z,4.15
2023-01-21T20:04:54.480Z,3.85
2023-01-21T20:07:37.118Z,4.07
2023-01-21T20:10:21.062Z,4.50
2023-01-21T20:13:03.681Z,4.15
2023-01-21T20:15:48.544Z,4.28
2023-01-21T20:18:32.519Z,4.85
2023-01-21T20:21:15.303Z,4.60
2023-01-21T20:23:57.933Z,4.15
2023-01-21T20:26:40.844Z,4.65
2023-01-21T20:29:23.438Z,4.75
2023-01-21T20:32:07.628Z,4.40
2023-01-21T20:34:50.221Z,4.65
2023-01-21T20:37:33.198Z,4.28
2023-01-21T20:40:16.927Z,4.10
2023-01-21T20:42:59.689Z,4.60
2023-01-21T20:45:43.199Z,4.70
2023-01-21T20:48:28.677Z,4.40
2023-01-21T20:51:11.346Z,4.40
2023-01-21T20:53:54.016Z,4.50
2023-01-21T20:56:38.286Z,3.53
2023-01-21T20:59:21.784Z,3.72
2023-01-21T21:02:04.418Z,3.63
2023-01-21T21:04:48.442Z,3.55
2023-01-21T21:07:31.039Z,3.53
2023-01-21T21:10:17.700Z,3.70
2023-01-21T21:13:00.435Z,4.63
2023-01-21T21:15:46.418Z,3.50
2023-01-21T21:18:29.311Z,3.40
2023-01-21T21:21:14.001Z,3.95
2023-01-21T21:23:56.676Z,3.53
2023-01-21T21:26:40.992Z,3.50
2023-01-21T21:29:23.665Z,3.65
2023-01-21T21:32:06.831Z,3.67
2023-01-21T21:34:51.260Z,3.53
2023-01-21T21:37:35.232Z,3.15
2023-01-21T21:40:18.168Z,3.10
2023-01-21T21:43:18.261Z,3.20
2023-01-21T21:46:22.086Z,2.80
2023-01-21T21:49:04.708Z,2.95
2023-01-21T21:51:47.382Z,2.75
2023-01-21T21:54:31.382Z,2.15
2023-01-21T21:57:14.214Z,3.00
2023-01-21T21:59:57.019Z,2.63
2023-01-21T22:02:39.917Z,2.50
2023-01-21T22:05:22.909Z,2.10
2023-01-21T22:08:06.046Z,2.30
2023-01-21T22:10:59.459Z,2.22
2023-01-21T22:13:43.437Z,2.40
2023-01-21T22:16:27.395Z,2.15
2023-01-21T22:19:10.038Z,2.10
2023-01-21T22:21:52.714Z,1.90
2023-01-21T22:24:35.296Z,2.00
2023-01-21T22:27:19.274Z,1.70
2023-01-21T22:30:01.882Z,1.83
2023-01-21T22:32:44.522Z,1.88
2023-01-21T22:35:27.206Z,2.00
2023-01-21T22:38:10.108Z,1.60
2023-01-21T22:40:56.263Z,1.58
2023-01-21T22:43:44.138Z,2.10
2023-01-21T22:46:29.358Z,1.95
2023-01-21T22:49:12.275Z,1.90
2023-01-21T22:51:55.059Z,2.10
2023-01-21T22:54:37.645Z,2.08
2023-01-21T22:57:20.253Z,1.92
2023-01-21T23:00:05.425Z,1.90
2023-01-21T23:02:48.100Z,2.28
2023-01-21T23:05:31.015Z,2.20
2023-01-21T23:08:13.806Z,1.98
2023-01-21T23:11:00.666Z,2.10
2023-01-21T23:13:43.551Z,2.03
2023-01-21T23:16:28.159Z,2.17
2023-01-21T23:19:10.773Z,2.20
2023-01-21T23:21:53.343Z,2.30
2023-01-21T23:24:35.966Z,2.20
2023-01-21T23:27:18.574Z,2.03
2023-01-21T23:30:01.238Z,1.98
2023-01-21T23:32:45.388Z,1.92
2023-01-21T23:35:27.981Z,1.98
2023-01-21T23:38:10.601Z,2.00
2023-01-21T23:40:53.181Z,2.35
2023-01-21T23:43:36.137Z,2.00
2023-01-21T23:46:19.983Z,2.30
2023-01-21T23:49:03.997Z,2.50
2023-01-21T23:51:46.950Z,2.83
2023-01-21T23:54:29.614Z,2.40
2023-01-21T23:57:12.730Z,2.42
2023-01-21T23:59:55.297Z,2.45
